createdAt,value
2019-01-09T00:01:49.241Z,2.43
2019-01-09T00:04:19.280Z,1.93
2019-01-09T00:06:49.322Z,1.63
2019-01-09T00:09:19.407Z,1.90
2019-01-09T00:11:49.751Z,2.03
2019-01-09T00:14:19.835Z,1.83
2019-01-09T00:16:49.950Z,3.77
2019-01-09T00:19:20.029Z,1.23
2019-01-09T00:21:50.126Z,3.63
2019-01-09T00:24:20.177Z,1.07
2019-01-09T00:26:50.600Z,0.80
2019-01-09T00:29:20.684Z,1.10
2019-01-09T00:31:50.789Z,2.80
2019-01-09T00:34:21.082Z,2.00
2019-01-09T00:36:51.302Z,3.63
2019-01-09T00:39:21.359Z,0.90
2019-01-09T00:41:51.903Z,2.30
2019-01-09T00:44:21.977Z,1.17
2019-01-09T00:46:52.021Z,1.10
2019-01-09T00:49:22.098Z,1.90
2019-01-09T00:51:52.135Z,2.00
2019-01-09T00:54:22.283Z,1.40
2019-01-09T00:56:52.468Z,2.23
2019-01-09T00:59:22.624Z,1.87
2019-01-09T01:02:11.328Z,4.03
2019-01-09T01:04:55.880Z,3.20
2019-01-09T01:08:06.766Z,3.23
2019-01-09T01:11:35.435Z,1.30
2019-01-09T01:14:55.059Z,1.60
2019-01-09T01:18:00.974Z,1.43
2019-01-09T01:20:51.301Z,1.20
2019-01-09T01:23:56.988Z,1.10
2019-01-09T01:26:45.846Z,1.00
2019-01-09T01:29:49.557Z,5.43
2019-01-09T01:33:09.543Z,1.10
2019-01-09T01:36:17.073Z,1.10
2019-01-09T01:39:23.204Z,0.97
2019-01-09T01:42:43.052Z,1.47
2019-01-09T01:45:47.544Z,1.03
2019-01-09T01:49:03.923Z,1.10
2019-01-09T01:52:12.087Z,1.27
2019-01-09T01:55:20.246Z,0.80
2019-01-09T01:58:16.883Z,1.13
2019-01-09T02:01:30.874Z,1.00
2019-01-09T02:04:40.877Z,0.87
2019-01-09T02:07:43.531Z,1.30
2019-01-09T02:10:57.732Z,1.47
2019-01-09T02:14:02.349Z,0.90
2019-01-09T02:17:08.498Z,1.00
2019-01-09T02:19:48.331Z,0.97
2019-01-09T02:22:40.047Z,1.13
2019-01-09T02:25:42.698Z,0.90
2019-01-09T02:28:58.352Z,1.00
2019-01-09T02:32:24.485Z,1.00
2019-01-09T02:34:54.536Z,0.73
2019-01-09T02:37:24.591Z,0.90
2019-01-09T02:39:54.649Z,1.20
2019-01-09T02:42:24.709Z,1.53
2019-01-09T02:44:55.061Z,1.13
2019-01-09T02:47:25.279Z,1.07
2019-01-09T02:49:55.510Z,1.00
2019-01-09T02:52:25.576Z,1.50
2019-01-09T02:54:56.452Z,0.97
2019-01-09T02:57:26.518Z,1.17
2019-01-09T02:59:57.341Z,1.50
2019-01-09T03:02:27.593Z,1.17
2019-01-09T03:04:58.054Z,1.10
2019-01-09T03:07:28.140Z,2.13
2019-01-09T03:09:58.947Z,1.03
2019-01-09T03:12:28.989Z,0.87
2019-01-09T03:14:59.541Z,0.97
2019-01-09T03:17:29.713Z,1.20
2019-01-09T03:20:00.427Z,1.10
2019-01-09T03:22:30.554Z,0.93
2019-01-09T03:25:00.951Z,0.73
2019-01-09T03:27:30.979Z,1.00
2019-01-09T03:30:01.998Z,1.27
2019-01-09T03:32:32.102Z,3.83
2019-01-09T03:35:02.326Z,1.53
2019-01-09T03:37:32.670Z,2.00
2019-01-09T03:40:02.853Z,1.00
2019-01-09T03:42:32.952Z,0.90
2019-01-09T03:45:03.076Z,0.63
2019-01-09T03:47:33.222Z,0.60
2019-01-09T03:50:03.422Z,1.70
2019-01-09T03:52:33.577Z,0.60
2019-01-09T03:55:03.702Z,0.80
2019-01-09T03:57:33.855Z,2.40
2019-01-09T04:00:05.339Z,0.80
2019-01-09T04:02:35.434Z,1.33
2019-01-09T04:05:06.428Z,0.70
2019-01-09T04:07:50.516Z,0.77
2019-01-09T04:10:20.613Z,0.60
2019-01-09T04:12:50.633Z,0.80
2019-01-09T04:15:20.858Z,0.93
2019-01-09T04:17:52.081Z,0.80
2019-01-09T04:20:22.088Z,0.80
2019-01-09T04:22:52.156Z,0.70
2019-01-09T04:25:22.252Z,0.73
2019-01-09T04:27:52.283Z,1.60
2019-01-09T04:30:22.356Z,0.73
2019-01-09T04:32:52.734Z,1.20
2019-01-09T04:35:22.811Z,0.93
2019-01-09T04:37:52.942Z,0.77
2019-01-09T04:40:23.028Z,1.77
2019-01-09T04:42:53.141Z,2.27
2019-01-09T04:45:23.197Z,3.00
2019-01-09T04:47:53.375Z,1.87
2019-01-09T04:50:23.476Z,0.90
2019-01-09T04:52:53.508Z,1.30
2019-01-09T04:55:23.564Z,0.83
2019-01-09T04:57:53.643Z,1.27
2019-01-09T05:00:23.698Z,1.43
2019-01-09T05:02:54.023Z,1.30
2019-01-09T05:05:24.194Z,2.30
2019-01-09T05:07:54.225Z,1.57
2019-01-09T05:10:24.325Z,2.83
2019-01-09T05:12:54.648Z,1.07
2019-01-09T05:15:25.063Z,2.43
2019-01-09T05:17:55.254Z,1.10
2019-01-09T05:20:25.497Z,1.90
2019-01-09T05:22:56.587Z,2.60
2019-01-09T05:25:26.597Z,1.70
2019-01-09T05:27:56.658Z,0.70
2019-01-09T05:30:26.720Z,2.07
2019-01-09T05:32:57.173Z,0.93
2019-01-09T05:35:27.462Z,0.60
2019-01-09T05:37:57.547Z,1.13
2019-01-09T05:40:27.677Z,0.87
2019-01-09T05:43:00.299Z,0.73
2019-01-09T05:45:29.685Z,1.27
2019-01-09T05:48:01.009Z,1.30
2019-01-09T05:50:31.124Z,0.97
2019-01-09T05:53:01.202Z,0.70
2019-01-09T05:55:33.346Z,0.73
2019-01-09T05:58:03.421Z,1.20
2019-01-09T06:00:35.725Z,2.50
2019-01-09T06:03:06.465Z,0.60
2019-01-09T06:05:36.679Z,0.50
2019-01-09T06:08:07.037Z,0.80
2019-01-09T06:10:37.139Z,0.50
2019-01-09T06:13:08.016Z,0.53
2019-01-09T06:15:38.444Z,0.50
2019-01-09T06:18:08.789Z,0.40
2019-01-09T06:20:38.821Z,0.60
2019-01-09T06:23:09.541Z,0.60
2019-01-09T06:25:40.046Z,0.60
2019-01-09T06:28:10.522Z,0.60
2019-01-09T06:30:42.136Z,0.57
2019-01-09T06:33:12.364Z,1.23
2019-01-09T06:35:42.477Z,2.10
2019-01-09T06:38:13.281Z,0.60
2019-01-09T06:40:43.395Z,0.70
2019-01-09T06:43:13.524Z,0.90
2019-01-09T06:45:44.104Z,1.27
2019-01-09T06:48:14.239Z,0.70
2019-01-09T06:50:44.344Z,0.70
2019-01-09T06:53:14.481Z,0.53
2019-01-09T06:55:44.597Z,0.40
2019-01-09T06:58:14.667Z,0.80
2019-01-09T07:00:44.781Z,0.53
2019-01-09T07:03:14.872Z,0.43
2019-01-09T07:05:45.024Z,0.50
2019-01-09T07:08:15.133Z,0.60
2019-01-09T07:10:45.241Z,0.50
2019-01-09T07:13:15.383Z,0.60
2019-01-09T07:15:45.487Z,0.60
2019-01-09T07:18:15.622Z,0.60
2019-01-09T07:20:45.799Z,0.70
2019-01-09T07:23:15.934Z,0.93
2019-01-09T07:25:46.061Z,1.20
2019-01-09T07:28:16.193Z,1.13
2019-01-09T07:30:46.307Z,1.10
2019-01-09T07:33:16.598Z,1.57
2019-01-09T07:35:46.904Z,1.30
2019-01-09T07:38:17.007Z,1.10
2019-01-09T07:40:47.056Z,3.23
2019-01-09T07:43:17.092Z,1.30
2019-01-09T07:45:47.173Z,1.30
2019-01-09T07:48:17.249Z,1.50
2019-01-09T07:50:47.412Z,1.30
2019-01-09T07:53:17.540Z,1.60
2019-01-09T07:55:47.631Z,1.53
2019-01-09T07:58:17.670Z,2.50
2019-01-09T08:00:47.759Z,1.80
2019-01-09T08:03:17.828Z,1.33
2019-01-09T08:05:48.329Z,2.10
2019-01-09T08:08:18.359Z,1.90
2019-01-09T08:10:48.459Z,1.70
2019-01-09T08:13:18.535Z,1.70
2019-01-09T08:15:49.788Z,1.97
2019-01-09T08:18:19.824Z,2.37
2019-01-09T08:20:50.721Z,2.20
2019-01-09T08:23:20.802Z,1.80
2019-01-09T08:25:50.871Z,2.30
2019-01-09T08:28:20.970Z,1.67
2019-01-09T08:30:52.532Z,2.07
2019-01-09T08:33:22.604Z,1.90
2019-01-09T08:35:53.448Z,1.83
2019-01-09T08:38:23.498Z,2.20
2019-01-09T08:40:53.732Z,2.20
2019-01-09T08:43:24.211Z,3.10
2019-01-09T08:45:54.293Z,2.03
2019-01-09T08:48:24.465Z,2.00
2019-01-09T08:50:54.663Z,2.43
2019-01-09T08:53:24.739Z,2.70
2019-01-09T08:55:54.809Z,1.87
2019-01-09T08:58:24.918Z,2.23
2019-01-09T09:00:55.091Z,2.10
2019-01-09T09:03:25.135Z,2.33
2019-01-09T09:05:55.316Z,2.27
2019-01-09T09:08:26.765Z,2.30
2019-01-09T09:10:57.784Z,3.83
2019-01-09T09:13:39.134Z,3.40
2019-01-09T09:16:10.693Z,2.90
2019-01-09T09:18:42.003Z,3.33
2019-01-09T09:21:12.576Z,4.33
2019-01-09T09:23:42.614Z,4.27
2019-01-09T09:26:13.094Z,4.57
2019-01-09T09:28:43.227Z,6.67
2019-01-09T09:31:14.064Z,4.77
2019-01-09T09:33:44.673Z,4.27
2019-01-09T09:36:14.873Z,5.33
2019-01-09T09:38:44.938Z,5.97
2019-01-09T09:41:15.119Z,5.53
2019-01-09T09:43:45.164Z,6.73
2019-01-09T09:46:15.344Z,6.57
2019-01-09T09:48:45.463Z,7.13
2019-01-09T09:51:15.628Z,8.07
2019-01-09T09:53:45.723Z,8.00
2019-01-09T09:56:15.973Z,7.67
2019-01-09T09:58:46.063Z,9.40
2019-01-09T10:01:16.347Z,11.93
2019-01-09T10:03:46.419Z,11.60
2019-01-09T10:06:16.543Z,10.73
2019-01-09T10:08:46.689Z,9.53
2019-01-09T10:11:16.953Z,9.43
2019-01-09T10:13:47.050Z,8.43
2019-01-09T10:16:18.117Z,11.80
2019-01-09T10:18:48.181Z,9.03
2019-01-09T10:21:18.393Z,10.57
2019-01-09T10:23:48.747Z,10.30
2019-01-09T10:26:18.844Z,10.70
2019-01-09T10:28:48.949Z,9.30
2019-01-09T10:31:19.389Z,9.20
2019-01-09T10:33:49.494Z,12.97
2019-01-09T10:36:19.559Z,10.37
2019-01-09T10:38:49.909Z,11.67
2019-01-09T10:41:20.447Z,10.83
2019-01-09T10:43:50.478Z,10.97
2019-01-09T10:46:20.530Z,10.73
2019-01-09T10:48:50.609Z,13.87
2019-01-09T10:51:21.659Z,14.03
2019-01-09T10:53:52.040Z,13.17
2019-01-09T10:56:22.134Z,11.73
2019-01-09T10:58:52.177Z,11.23
2019-01-09T11:01:22.489Z,12.20
2019-01-09T11:03:52.558Z,12.77
2019-01-09T11:06:22.609Z,11.13
2019-01-09T11:08:52.892Z,15.73
2019-01-09T11:11:23.368Z,14.30
2019-01-09T11:13:53.435Z,12.37
2019-01-09T11:16:23.513Z,14.37
2019-01-09T11:18:53.686Z,12.17
2019-01-09T11:21:24.026Z,10.63
2019-01-09T11:23:54.643Z,11.23
2019-01-09T11:26:24.705Z,9.47
2019-01-09T11:28:54.827Z,7.73
2019-01-09T11:31:25.402Z,8.03
2019-01-09T11:33:55.610Z,5.13
2019-01-09T11:36:25.685Z,4.97
2019-01-09T11:38:56.118Z,6.47
2019-01-09T11:41:26.372Z,5.27
2019-01-09T11:43:56.733Z,5.27
2019-01-09T11:46:26.796Z,6.97
2019-01-09T11:48:56.894Z,5.97
2019-01-09T11:51:27.351Z,9.77
2019-01-09T11:53:57.435Z,10.40
2019-01-09T11:56:27.574Z,9.47
2019-01-09T11:58:57.604Z,10.30
2019-01-09T12:01:27.697Z,12.53
2019-01-09T12:03:57.733Z,9.37
2019-01-09T12:06:28.110Z,12.63
2019-01-09T12:09:04.536Z,13.37
2019-01-09T12:11:30.361Z,12.77
2019-01-09T12:14:00.410Z,9.47
2019-01-09T12:16:30.489Z,13.17
2019-01-09T12:19:00.560Z,7.63
2019-01-09T12:21:30.614Z,10.37
2019-01-09T12:24:00.727Z,8.13
2019-01-09T12:26:30.889Z,9.03
2019-01-09T12:29:00.965Z,12.70
2019-01-09T12:31:31.059Z,8.07
2019-01-09T12:34:01.093Z,6.90
2019-01-09T12:36:31.150Z,4.87
2019-01-09T12:39:01.275Z,5.43
2019-01-09T12:41:31.442Z,3.83
2019-01-09T12:44:01.513Z,5.10
2019-01-09T12:46:31.607Z,4.60
2019-01-09T12:49:01.638Z,4.03
2019-01-09T12:51:31.702Z,4.93
2019-01-09T12:54:01.748Z,6.20
2019-01-09T12:56:31.898Z,5.33
2019-01-09T12:59:01.965Z,5.80
2019-01-09T13:01:31.998Z,8.00
2019-01-09T13:04:02.106Z,5.33
2019-01-09T13:06:32.182Z,7.57
2019-01-09T13:09:02.261Z,9.93
2019-01-09T13:11:32.533Z,8.23
2019-01-09T13:14:02.565Z,6.33
2019-01-09T13:16:32.655Z,8.73
2019-01-09T13:19:02.721Z,9.60
2019-01-09T13:21:32.930Z,5.73
2019-01-09T13:24:03.080Z,6.93
2019-01-09T13:26:33.228Z,7.43
2019-01-09T13:29:03.293Z,7.87
2019-01-09T13:31:33.491Z,4.23
2019-01-09T13:34:09.100Z,5.73
2019-01-09T13:36:39.816Z,4.83
2019-01-09T13:39:10.732Z,5.20
2019-01-09T13:41:40.852Z,5.17
2019-01-09T13:44:11.000Z,7.13
2019-01-09T13:46:41.156Z,4.40
2019-01-09T13:49:11.405Z,6.60
2019-01-09T13:51:42.466Z,4.13
2019-01-09T13:54:12.484Z,6.93
2019-01-09T13:56:42.552Z,4.20
2019-01-09T13:59:12.687Z,6.27
2019-01-09T14:01:42.727Z,5.80
2019-01-09T14:04:12.790Z,6.63
2019-01-09T14:06:43.258Z,5.20
2019-01-09T14:09:13.316Z,9.33
2019-01-09T14:11:43.363Z,8.50
2019-01-09T14:14:13.440Z,5.17
2019-01-09T14:16:45.342Z,7.67
2019-01-09T14:19:16.656Z,4.20
2019-01-09T14:21:47.215Z,3.03
2019-01-09T14:24:21.641Z,3.37
2019-01-09T14:26:55.906Z,4.67
2019-01-09T14:29:31.010Z,6.47
2019-01-09T14:32:02.184Z,5.03
2019-01-09T14:34:33.320Z,5.30
2019-01-09T14:37:04.136Z,6.73
2019-01-09T14:39:34.668Z,7.77
2019-01-09T14:42:05.788Z,7.30
2019-01-09T14:44:35.873Z,8.87
2019-01-09T14:47:05.987Z,7.20
2019-01-09T14:49:36.055Z,11.33
2019-01-09T14:52:06.171Z,10.00
2019-01-09T14:54:36.216Z,11.97
2019-01-09T14:57:06.480Z,10.60
2019-01-09T14:59:36.705Z,9.97
2019-01-09T15:02:06.851Z,7.77
2019-01-09T15:04:36.944Z,9.03
2019-01-09T15:07:07.002Z,8.30
2019-01-09T15:09:37.088Z,8.17
2019-01-09T15:12:07.401Z,10.13
2019-01-09T15:14:37.635Z,7.77
2019-01-09T15:17:08.135Z,8.10
2019-01-09T15:19:38.561Z,9.27
2019-01-09T15:22:09.185Z,9.10
2019-01-09T15:24:39.989Z,8.70
2019-01-09T15:27:10.363Z,11.90
2019-01-09T15:29:40.745Z,11.07
2019-01-09T15:32:10.878Z,9.83
2019-01-09T15:34:40.930Z,10.90
2019-01-09T15:37:11.003Z,15.10
2019-01-09T15:39:42.108Z,11.53
2019-01-09T15:42:12.160Z,14.17
2019-01-09T15:44:42.256Z,10.43
2019-01-09T15:47:12.319Z,12.63
2019-01-09T15:49:42.392Z,14.43
2019-01-09T15:52:12.771Z,14.00
2019-01-09T15:54:42.999Z,16.27
2019-01-09T15:57:13.044Z,11.30
2019-01-09T15:59:43.114Z,15.20
2019-01-09T16:02:13.176Z,12.53
2019-01-09T16:04:43.295Z,15.77
2019-01-09T16:07:13.373Z,19.10
2019-01-09T16:09:43.510Z,17.70
2019-01-09T16:12:13.607Z,17.40
2019-01-09T16:14:43.662Z,19.43
2019-01-09T16:17:13.699Z,22.37
2019-01-09T16:19:43.834Z,20.20
2019-01-09T16:22:13.944Z,22.47
2019-01-09T16:24:44.121Z,21.97
2019-01-09T16:27:14.494Z,21.40
2019-01-09T16:29:45.025Z,20.63
2019-01-09T16:32:15.173Z,23.50
2019-01-09T16:34:45.320Z,23.00
2019-01-09T16:37:34.448Z,28.87
2019-01-09T16:40:05.495Z,31.93
2019-01-09T16:42:35.579Z,25.33
2019-01-09T16:45:06.375Z,25.43
2019-01-09T16:47:36.519Z,30.50
2019-01-09T16:50:08.906Z,34.53
2019-01-09T16:52:39.755Z,26.60
2019-01-09T16:55:09.958Z,29.67
2019-01-09T16:57:41.725Z,29.07
2019-01-09T17:00:17.505Z,36.77
2019-01-09T17:02:50.313Z,31.83
2019-01-09T17:05:20.611Z,32.50
2019-01-09T17:07:51.644Z,32.00
2019-01-09T17:10:22.766Z,25.83
2019-01-09T17:12:52.867Z,29.10
2019-01-09T17:15:22.885Z,33.73
2019-01-09T17:17:53.168Z,26.57
2019-01-09T17:20:23.349Z,27.53
2019-01-09T17:22:53.424Z,30.40
2019-01-09T17:25:24.464Z,28.20
2019-01-09T17:27:55.629Z,31.50
2019-01-09T17:30:28.487Z,26.53
2019-01-09T17:33:01.063Z,26.77
2019-01-09T17:35:31.902Z,30.93
2019-01-09T17:38:02.487Z,29.97
2019-01-09T17:40:40.706Z,27.30
2019-01-09T17:43:05.176Z,33.60
2019-01-09T17:45:38.776Z,31.53
2019-01-09T17:48:11.248Z,35.87
2019-01-09T17:50:43.704Z,33.43
2019-01-09T17:53:21.892Z,36.87
2019-01-09T17:55:57.323Z,36.93
2019-01-09T17:58:36.649Z,36.27
2019-01-09T18:01:07.243Z,37.27
2019-01-09T18:03:37.981Z,44.23
2019-01-09T18:06:08.120Z,34.00
2019-01-09T18:08:39.477Z,34.27
2019-01-09T18:11:09.536Z,35.67
2019-01-09T18:13:40.157Z,42.57
2019-01-09T18:16:10.197Z,36.93
2019-01-09T18:18:41.244Z,36.77
2019-01-09T18:21:11.416Z,37.13
2019-01-09T18:23:41.714Z,37.73
2019-01-09T18:26:11.816Z,37.53
2019-01-09T18:28:41.995Z,40.33
2019-01-09T18:31:56.372Z,41.33
2019-01-09T18:34:44.408Z,39.27
2019-01-09T18:37:50.796Z,41.87
2019-01-09T18:40:47.608Z,48.13
2019-01-09T18:43:35.145Z,43.43
2019-01-09T18:46:37.332Z,47.20
2019-01-09T18:49:42.430Z,46.60
2019-01-09T18:52:30.677Z,46.83
2019-01-09T18:55:00.763Z,50.63
2019-01-09T18:57:30.965Z,56.70
2019-01-09T19:00:01.024Z,53.27
2019-01-09T19:02:31.860Z,50.37
2019-01-09T19:05:01.934Z,56.43
2019-01-09T19:07:33.225Z,46.47
2019-01-09T19:10:03.486Z,46.63
2019-01-09T19:12:34.709Z,39.60
2019-01-09T19:15:06.206Z,41.40
2019-01-09T19:17:36.425Z,42.77
2019-01-09T19:20:08.634Z,41.30
2019-01-09T19:22:39.245Z,42.50
2019-01-09T19:25:10.255Z,45.10
2019-01-09T19:27:41.076Z,49.53
2019-01-09T19:30:25.883Z,43.57
2019-01-09T19:32:55.965Z,39.73
2019-01-09T19:35:26.036Z,42.73
2019-01-09T19:37:56.269Z,39.97
2019-01-09T19:40:26.422Z,37.33
2019-01-09T19:42:57.508Z,35.33
2019-01-09T19:45:27.684Z,32.97
2019-01-09T19:47:57.722Z,29.50
2019-01-09T19:50:27.837Z,29.23
2019-01-09T19:52:57.971Z,31.50
2019-01-09T19:55:29.496Z,33.20
2019-01-09T19:57:59.681Z,28.87
2019-01-09T20:00:29.742Z,33.23
2019-01-09T20:02:59.949Z,31.00
2019-01-09T20:05:30.816Z,35.47
2019-01-09T20:08:00.823Z,32.03
2019-01-09T20:10:31.011Z,32.33
2019-01-09T20:13:01.093Z,36.30
2019-01-09T20:15:31.450Z,31.13
2019-01-09T20:18:01.648Z,29.10
2019-01-09T20:20:33.000Z,31.33
2019-01-09T20:23:03.270Z,26.60
2019-01-09T20:25:33.482Z,25.17
2019-01-09T20:28:03.613Z,29.13
2019-01-09T20:30:33.779Z,25.40
2019-01-09T20:33:05.836Z,22.47
2019-01-09T20:35:36.974Z,22.33
2019-01-09T20:38:07.174Z,23.70
2019-01-09T20:40:37.246Z,22.13
2019-01-09T20:43:07.379Z,20.80
2019-01-09T20:45:38.147Z,19.47
2019-01-09T20:48:08.214Z,18.87
2019-01-09T20:50:39.298Z,18.10
2019-01-09T20:53:11.104Z,18.87
2019-01-09T20:55:41.371Z,15.63
2019-01-09T20:58:11.585Z,17.93
2019-01-09T21:00:42.939Z,14.93
2019-01-09T21:03:13.903Z,14.80
2019-01-09T21:05:46.951Z,12.73
2019-01-09T21:08:22.004Z,13.83
2019-01-09T21:10:54.514Z,15.33
2019-01-09T21:13:27.413Z,14.93
2019-01-09T21:15:59.359Z,14.53
2019-01-09T21:18:29.902Z,13.43
2019-01-09T21:21:01.143Z,12.13
2019-01-09T21:23:32.208Z,14.07
2019-01-09T21:26:02.297Z,12.03
2019-01-09T21:28:32.320Z,12.90
2019-01-09T21:31:02.961Z,10.17
2019-01-09T21:33:34.753Z,10.13
2019-01-09T21:36:05.238Z,9.00
2019-01-09T21:38:35.340Z,12.03
2019-01-09T21:41:05.537Z,10.63
2019-01-09T21:43:35.666Z,9.23
2019-01-09T21:46:06.153Z,8.60
2019-01-09T21:48:36.315Z,8.60
2019-01-09T21:51:06.900Z,7.57
2019-01-09T21:53:37.215Z,10.07
2019-01-09T21:56:08.212Z,10.47
2019-01-09T21:58:43.211Z,7.67
2019-01-09T22:01:13.238Z,9.57
2019-01-09T22:03:43.679Z,9.03
2019-01-09T22:06:14.021Z,7.30
2019-01-09T22:08:44.485Z,8.03
2019-01-09T22:11:14.561Z,10.47
2019-01-09T22:13:44.642Z,9.50
2019-01-09T22:16:14.700Z,11.80
2019-01-09T22:18:44.965Z,10.60
2019-01-09T22:21:14.967Z,9.63
2019-01-09T22:23:45.064Z,10.13
2019-01-09T22:26:15.172Z,10.20
2019-01-09T22:28:45.282Z,9.93
2019-01-09T22:31:15.397Z,11.27
2019-01-09T22:33:45.462Z,9.97
2019-01-09T22:36:15.482Z,9.17
2019-01-09T22:38:45.527Z,8.67
2019-01-09T22:41:15.563Z,8.27
2019-01-09T22:43:45.613Z,8.33
2019-01-09T22:46:15.890Z,8.17
2019-01-09T22:48:45.937Z,7.30
2019-01-09T22:51:16.094Z,8.37
2019-01-09T22:53:46.145Z,9.50
2019-01-09T22:56:16.197Z,9.07
2019-01-09T22:58:46.297Z,8.83
2019-01-09T23:01:34.350Z,8.13
2019-01-09T23:04:05.195Z,6.70
2019-01-09T23:06:35.299Z,7.93
2019-01-09T23:09:08.694Z,9.23
2019-01-09T23:11:38.761Z,8.60
2019-01-09T23:14:08.871Z,10.13
2019-01-09T23:16:38.953Z,9.30
2019-01-09T23:19:09.085Z,9.23
2019-01-09T23:21:40.170Z,8.53
2019-01-09T23:24:10.824Z,8.67
2019-01-09T23:26:40.859Z,10.90
2019-01-09T23:29:10.937Z,8.83
2019-01-09T23:31:40.993Z,10.90
2019-01-09T23:34:11.032Z,9.60
2019-01-09T23:36:42.107Z,9.60
2019-01-09T23:39:12.141Z,11.53
2019-01-09T23:41:42.234Z,9.93
2019-01-09T23:44:12.288Z,10.93
2019-01-09T23:46:42.316Z,10.37
2019-01-09T23:49:12.435Z,11.30
2019-01-09T23:51:42.912Z,13.47
2019-01-09T23:54:12.978Z,17.93
2019-01-09T23:56:43.122Z,18.77
2019-01-09T23:59:13.159Z,16.43
